Time;durP1;ratioP1;P1;durP2;ratioP2;P2;SDS_P1;SDS_P2;PMS_P1;PMS_P2;Temp;Humidity;BMP_temperature;BMP_pressure;BME280_temperature;BME280_humidity;BME280_pressure;Samples;Min_cycle;Max_cycle;Signal;HPM_P1;HPM_P2
2023/03/12 00:00:29;;;;;;;20.95;14.25;;;;;;;;;;5098343;28;20019;-76
2023/03/12 00:02:55;;;;;;;15.90;11.88;;;;;;;;;;5088443;28;20027;-76
2023/03/12 00:05:21;;;;;;;14.30;10.43;;;;;;;;;;5090187;28;20034;-75
2023/03/12 00:07:47;;;;;;;19.77;16.25;;;;;;;;;;5094508;28;20077;-75
2023/03/12 00:10:12;;;;;;;16.77;12.45;;;;;;;;;;5095505;28;20043;-77
2023/03/12 00:12:37;;;;;;;19.65;13.40;;;;;;;;;;5096936;28;20034;-76
2023/03/12 00:15:03;;;;;;;12.10;8.82;;;;;;;;;;5094937;28;20085;-75
2023/03/12 00:17:29;;;;;;;13.90;9.75;;;;;;;;;;5096474;28;20078;-77
2023/03/12 00:19:54;;;;;;;26.10;15.68;;;;;;;;;;5094501;28;20036;-76
2023/03/12 00:22:21;;;;;;;10.18;7.50;;;;;;;;;;5093554;28;20032;-75
2023/03/12 00:24:51;;;;;;;12.35;10.25;;;;;;;;;;5087039;28;20438;-75
2023/03/12 00:27:16;;;;;;;19.80;11.13;;;;;;;;;;5092613;28;20064;-77
2023/03/12 00:29:42;;;;;;;16.55;11.30;;;;;;;;;;5086926;28;20119;-76
2023/03/12 00:32:07;;;;;;;15.60;10.18;;;;;;;;;;5085708;28;20023;-77
2023/03/12 00:34:32;;;;;;;13.82;10.25;;;;;;;;;;5083766;28;20055;-78
2023/03/12 00:36:58;;;;;;;11.48;8.07;;;;;;;;;;5089032;28;20028;-77
2023/03/12 00:39:23;;;;;;;13.77;8.63;;;;;;;;;;5087643;28;20179;-78
2023/03/12 00:41:48;;;;;;;13.48;8.50;;;;;;;;;;5098749;28;20111;-78
2023/03/12 00:44:13;;;;;;;9.30;5.93;;;;;;;;;;5095961;28;20028;-79
2023/03/12 00:46:39;;;;;;;9.38;7.25;;;;;;;;;;5096966;28;20042;-78
2023/03/12 00:49:04;;;;;;;6.20;5.30;;;;;;;;;;5098457;28;20035;-77
2023/03/12 00:51:29;;;;;;;9.75;7.07;;;;;;;;;;5097253;28;20074;-76
2023/03/12 00:53:55;;;;;;;6.35;5.07;;;;;;;;;;5098189;28;20027;-76
2023/03/12 00:56:20;;;;;;;21.55;11.30;;;;;;;;;;5095186;28;20038;-77
2023/03/12 00:58:45;;;;;;;23.23;15.15;;;;;;;;;;5095320;28;20430;-76
2023/03/12 01:01:11;;;;;;;65.47;51.58;;;;;;;;;;5085547;28;20034;-75
2023/03/12 01:03:36;;;;;;;11.70;10.50;;;;;;;;;;5092170;28;20449;-76
2023/03/12 01:06:02;;;;;;;13.60;7.40;;;;;;;;;;5093922;27;20063;-76
2023/03/12 01:08:27;;;;;;;18.50;10.55;;;;;;;;;;5096370;28;20015;-76
2023/03/12 01:10:53;;;;;;;19.05;12.00;;;;;;;;;;5086244;28;20114;-76
2023/03/12 01:13:18;;;;;;;23.42;13.15;;;;;;;;;;5091025;28;20128;-77
2023/03/12 01:15:46;;;;;;;22.50;13.82;;;;;;;;;;5093757;28;20032;-77
2023/03/12 01:18:11;;;;;;;14.07;9.85;;;;;;;;;;5091953;28;20040;-76
2023/03/12 01:20:37;;;;;;;21.70;13.48;;;;;;;;;;5093604;28;20024;-77
2023/03/12 01:23:02;;;;;;;15.88;10.48;;;;;;;;;;5094365;28;20157;-76
2023/03/12 01:25:27;;;;;;;17.90;10.63;;;;;;;;;;5095030;28;20036;-76
2023/03/12 01:27:53;;;;;;;24.77;13.65;;;;;;;;;;5097192;28;20028;-80
2023/03/12 01:30:18;;;;;;;18.98;11.30;;;;;;;;;;5095654;28;20066;-76
2023/03/12 01:32:43;;;;;;;23.35;12.95;;;;;;;;;;5094547;28;20024;-77
2023/03/12 01:35:09;;;;;;;21.30;12.48;;;;;;;;;;5090439;28;20336;-78
2023/03/12 01:37:34;;;;;;;19.80;12.45;;;;;;;;;;5091499;28;20031;-76
2023/03/12 01:40:00;;;;;;;22.10;13.82;;;;;;;;;;5090805;28;20028;-76
2023/03/12 01:42:25;;;;;;;28.05;16.20;;;;;;;;;;5083236;28;20031;-77
2023/03/12 01:44:55;;;;;;;27.35;18.17;;;;;;;;;;5083745;28;20024;-76
2023/03/12 01:47:20;;;;;;;;;;;;;;;;;;5089541;28;20458;-76
2023/03/12 01:49:47;;;;;;;11.23;8.80;;;;;;;;;;5095002;28;19947;-76
2023/03/12 01:52:18;;;;;;;11.93;8.23;;;;;;;;;;5095113;28;20368;-76
2023/03/12 01:54:48;;;;;;;13.93;8.73;;;;;;;;;;5091453;28;20119;-76
2023/03/12 01:57:36;;;;;;;15.98;10.02;;;;;;;;;;5092431;28;20443;-77
2023/03/12 02:00:06;;;;;;;8.05;5.82;;;;;;;;;;5080368;28;20038;-75
2023/03/12 02:02:32;;;;;;;8.20;6.32;;;;;;;;;;5088977;28;20028;-76
2023/03/12 02:05:08;;;;;;;11.52;8.13;;;;;;;;;;5094800;28;20023;-76
2023/03/12 02:07:34;;;;;;;8.40;7.30;;;;;;;;;;5089387;28;20438;-76
2023/03/12 02:09:59;;;;;;;11.52;7.85;;;;;;;;;;5096219;28;20016;-77
2023/03/12 02:12:25;;;;;;;11.40;7.65;;;;;;;;;;5094004;28;20032;-76
2023/03/12 02:14:50;;;;;;;7.80;5.32;;;;;;;;;;5095014;28;20031;-77
2023/03/12 02:17:15;;;;;;;6.10;5.13;;;;;;;;;;5091930;28;20384;-77
2023/03/12 02:20:00;;;;;;;7.97;5.78;;;;;;;;;;5089342;28;20343;-76
2023/03/12 02:22:26;;;;;;;7.00;5.30;;;;;;;;;;5094022;28;20068;-76
2023/03/12 02:24:55;;;;;;;11.32;7.05;;;;;;;;;;5090523;28;20373;-75
2023/03/12 02:27:21;;;;;;;13.50;8.63;;;;;;;;;;5081977;28;20031;-76
2023/03/12 02:29:47;;;;;;;16.90;13.70;;;;;;;;;;5087355;28;20439;-76
2023/03/12 02:32:17;;;;;;;22.25;14.30;;;;;;;;;;5091937;28;20019;-76
2023/03/12 02:34:42;;;;;;;9.98;7.55;;;;;;;;;;5094557;28;20779;-77
2023/03/12 02:37:07;;;;;;;14.63;9.70;;;;;;;;;;5091949;28;20032;-76
2023/03/12 02:39:33;;;;;;;8.73;6.43;;;;;;;;;;5085177;28;20035;-77
2023/03/12 02:41:59;;;;;;;9.05;6.43;;;;;;;;;;5095417;28;20480;-78
2023/03/12 02:44:25;;;;;;;7.38;6.47;;;;;;;;;;5094189;28;20452;-76
2023/03/12 02:46:52;;;;;;;7.82;5.95;;;;;;;;;;5092856;28;20027;-76
2023/03/12 02:49:18;;;;;;;19.23;11.00;;;;;;;;;;5097925;28;20031;-76
2023/03/12 02:51:44;;;;;;;21.08;13.65;;;;;;;;;;5100881;28;20024;-78
2023/03/12 02:54:09;;;;;;;12.13;8.02;;;;;;;;;;5098605;28;20093;-78
2023/03/12 02:56:35;;;;;;;9.52;6.68;;;;;;;;;;5097107;28;20027;-78
2023/03/12 02:59:00;;;;;;;7.57;5.88;;;;;;;;;;5097579;28;20028;-78
2023/03/12 03:01:26;;;;;;;8.23;6.88;;;;;;;;;;5090985;28;20066;-77
2023/03/12 03:03:53;;;;;;;13.40;7.85;;;;;;;;;;5094724;28;20803;-77
2023/03/12 03:06:18;;;;;;;12.35;7.85;;;;;;;;;;5090543;28;20043;-77
2023/03/12 03:08:44;;;;;;;12.98;7.53;;;;;;;;;;5092853;28;20031;-77
2023/03/12 03:11:09;;;;;;;10.20;7.03;;;;;;;;;;5095338;28;20032;-77
2023/03/12 03:13:35;;;;;;;7.82;6.95;;;;;;;;;;5096587;28;20039;-78
2023/03/12 03:16:00;;;;;;;13.63;11.10;;;;;;;;;;5097602;28;20034;-76
2023/03/12 03:18:26;;;;;;;11.90;8.50;;;;;;;;;;5097581;28;20031;-77
2023/03/12 03:20:55;;;;;;;12.30;9.15;;;;;;;;;;5097547;28;20353;-77
2023/03/12 03:23:21;;;;;;;12.43;10.38;;;;;;;;;;5093817;28;20028;-76
2023/03/12 03:25:46;;;;;;;16.30;10.80;;;;;;;;;;5094036;28;20076;-76
2023/03/12 03:28:11;;;;;;;15.98;10.23;;;;;;;;;;5090492;28;20085;-77
2023/03/12 03:30:37;;;;;;;10.77;8.85;;;;;;;;;;5089649;28;20098;-77
2023/03/12 03:33:03;;;;;;;9.30;6.95;;;;;;;;;;5096994;28;20019;-79
2023/03/12 03:35:28;;;;;;;8.52;6.32;;;;;;;;;;5096778;28;20387;-77
2023/03/12 03:37:54;;;;;;;9.73;7.13;;;;;;;;;;5098988;28;20364;-77
2023/03/12 03:40:19;;;;;;;9.63;6.38;;;;;;;;;;5090914;28;20105;-77
2023/03/12 03:42:44;;;;;;;8.98;5.45;;;;;;;;;;5095054;28;20048;-77
2023/03/12 03:45:10;;;;;;;10.38;6.63;;;;;;;;;;5098773;28;20982;-78
2023/03/12 03:47:35;;;;;;;8.30;7.05;;;;;;;;;;5097641;28;20085;-78
2023/03/12 03:50:01;;;;;;;11.02;8.20;;;;;;;;;;5085750;28;20023;-77
2023/03/12 03:52:26;;;;;;;10.70;7.35;;;;;;;;;;5094714;28;20486;-78
2023/03/12 03:54:52;;;;;;;11.23;8.02;;;;;;;;;;5096581;28;20466;-77
2023/03/12 03:57:18;;;;;;;7.53;6.07;;;;;;;;;;5128364;27;20108;-78
2023/03/12 03:59:43;;;;;;;11.13;7.68;;;;;;;;;;5097688;28;20432;-76
2023/03/12 04:02:08;;;;;;;8.32;6.72;;;;;;;;;;5087535;28;20026;-77
2023/03/12 04:04:34;;;;;;;10.55;8.95;;;;;;;;;;5096409;28;20023;-78
2023/03/12 04:06:59;;;;;;;7.60;5.63;;;;;;;;;;5097666;28;20498;-77
2023/03/12 04:09:24;;;;;;;9.90;7.20;;;;;;;;;;5096594;28;20366;-78
2023/03/12 04:11:49;;;;;;;14.65;9.32;;;;;;;;;;5096098;28;20023;-77
2023/03/12 04:14:15;;;;;;;11.07;7.72;;;;;;;;;;5096957;28;20028;-77
2023/03/12 04:16:40;;;;;;;10.57;6.60;;;;;;;;;;5087370;28;20045;-79
2023/03/12 04:19:05;;;;;;;8.43;7.05;;;;;;;;;;5095420;28;20110;-79
2023/03/12 04:21:31;;;;;;;10.60;6.68;;;;;;;;;;5096948;28;20023;-77
2023/03/12 04:23:56;;;;;;;9.45;7.30;;;;;;;;;;5096688;28;20405;-78
2023/03/12 04:26:21;;;;;;;9.98;7.28;;;;;;;;;;5095099;28;20089;-77
2023/03/12 04:28:47;;;;;;;8.55;6.65;;;;;;;;;;5093603;28;20077;-78
2023/03/12 04:31:12;;;;;;;8.15;6.05;;;;;;;;;;5095326;28;20314;-78
2023/03/12 04:33:38;;;;;;;18.17;16.38;;;;;;;;;;5097421;28;20034;-78
2023/03/12 04:36:04;;;;;;;11.30;9.57;;;;;;;;;;5089881;28;20038;-78
2023/03/12 04:38:29;;;;;;;9.52;8.52;;;;;;;;;;5091242;28;20444;-78
2023/03/12 04:41:01;;;;;;;9.35;6.72;;;;;;;;;;5095794;28;20347;-78
2023/03/12 04:43:27;;;;;;;16.42;11.68;;;;;;;;;;5095168;28;20059;-77
2023/03/12 04:45:52;;;;;;;9.75;8.75;;;;;;;;;;5095280;28;20059;-78
2023/03/12 04:48:17;;;;;;;6.95;6.15;;;;;;;;;;5094836;28;20122;-78
2023/03/12 04:50:43;;;;;;;9.43;8.23;;;;;;;;;;5096709;28;20448;-76
2023/03/12 04:53:08;;;;;;;55.20;35.08;;;;;;;;;;5090564;28;20478;-77
2023/03/12 04:55:34;;;;;;;113.95;69.97;;;;;;;;;;5095502;28;20501;-77
2023/03/12 04:57:59;;;;;;;47.03;29.30;;;;;;;;;;5093401;28;20032;-78
2023/03/12 05:00:25;;;;;;;30.42;19.55;;;;;;;;;;5093165;28;20019;-78
2023/03/12 05:02:51;;;;;;;21.58;15.45;;;;;;;;;;5090727;28;20020;-76
2023/03/12 05:05:17;;;;;;;16.88;11.70;;;;;;;;;;5095684;28;20039;-75
2023/03/12 05:07:42;;;;;;;16.08;13.90;;;;;;;;;;5098078;28;20057;-75
2023/03/12 05:10:08;;;;;;;25.48;21.85;;;;;;;;;;5096040;28;20050;-76
2023/03/12 05:12:33;;;;;;;23.08;20.67;;;;;;;;;;5096861;28;20023;-76
2023/03/12 05:14:58;;;;;;;37.10;30.40;;;;;;;;;;5094767;28;20022;-76
2023/03/12 05:17:23;;;;;;;22.95;16.38;;;;;;;;;;5096855;28;20031;-76
2023/03/12 05:19:49;;;;;;;14.75;12.57;;;;;;;;;;5091377;28;20092;-76
2023/03/12 05:22:14;;;;;;;12.35;11.07;;;;;;;;;;5090157;28;20100;-76
2023/03/12 05:24:39;;;;;;;15.55;14.02;;;;;;;;;;5092027;28;20019;-76
2023/03/12 05:27:07;;;;;;;10.35;9.23;;;;;;;;;;5093832;28;20047;-77
2023/03/12 05:29:34;;;;;;;38.67;26.17;;;;;;;;;;5093641;28;20075;-76
2023/03/12 05:32:00;;;;;;;14.63;12.55;;;;;;;;;;5091674;28;21051;-77
2023/03/12 05:34:25;;;;;;;24.25;19.77;;;;;;;;;;5095394;28;20051;-78
2023/03/12 05:36:50;;;;;;;13.82;12.27;;;;;;;;;;5092766;28;20432;-76
2023/03/12 05:39:16;;;;;;;10.02;8.80;;;;;;;;;;5095006;28;20031;-77
2023/03/12 05:41:41;;;;;;;21.00;16.50;;;;;;;;;;5094906;28;20146;-77
2023/03/12 05:44:09;;;;;;;18.60;15.10;;;;;;;;;;5094634;28;20027;-77
2023/03/12 05:46:34;;;;;;;52.65;41.97;;;;;;;;;;5094310;28;20027;-77
2023/03/12 05:49:00;;;;;;;20.77;16.70;;;;;;;;;;5092651;28;20796;-77
2023/03/12 05:51:25;;;;;;;18.63;14.93;;;;;;;;;;5088822;28;20354;-75
2023/03/12 05:53:50;;;;;;;22.55;20.20;;;;;;;;;;5087676;28;20047;-75
2023/03/12 05:56:16;;;;;;;18.52;16.63;;;;;;;;;;5095930;28;20031;-76
2023/03/12 05:58:42;;;;;;;22.17;19.73;;;;;;;;;;5095336;28;20492;-77
2023/03/12 06:01:15;;;;;;;17.55;15.60;;;;;;;;;;5095077;28;20392;-77
2023/03/12 06:03:41;;;;;;;9.30;8.30;;;;;;;;;;5097350;28;20059;-76
2023/03/12 06:06:07;;;;;;;13.13;11.70;;;;;;;;;;5096444;28;20371;-77
2023/03/12 06:08:32;;;;;;;22.77;18.13;;;;;;;;;;5095008;28;20028;-78
2023/03/12 06:10:58;;;;;;;16.20;13.15;;;;;;;;;;5092148;28;20016;-77
2023/03/12 06:13:24;;;;;;;20.70;16.23;;;;;;;;;;5080593;28;20027;-76
2023/03/12 06:15:49;;;;;;;22.73;19.55;;;;;;;;;;5084123;28;20031;-78
2023/03/12 06:18:15;;;;;;;26.77;18.90;;;;;;;;;;5087538;28;20119;-77
2023/03/12 06:20:40;;;;;;;16.30;14.13;;;;;;;;;;5088839;28;20030;-77
2023/03/12 06:23:05;;;;;;;7.72;6.90;;;;;;;;;;5100803;28;20326;-76
2023/03/12 06:25:31;;;;;;;25.20;17.42;;;;;;;;;;5097524;28;20031;-76
2023/03/12 06:27:56;;;;;;;14.20;11.48;;;;;;;;;;5088294;28;20073;-75
2023/03/12 06:30:21;;;;;;;16.60;14.90;;;;;;;;;;5086726;28;20469;-76
2023/03/12 06:32:47;;;;;;;24.70;18.50;;;;;;;;;;5085458;28;20329;-76
2023/03/12 06:35:12;;;;;;;53.30;40.05;;;;;;;;;;5096733;28;20035;-77
2023/03/12 06:37:37;;;;;;;36.13;31.42;;;;;;;;;;5096400;28;20043;-76
2023/03/12 06:40:03;;;;;;;9.30;7.65;;;;;;;;;;5094273;28;20412;-75
2023/03/12 06:42:29;;;;;;;19.85;14.32;;;;;;;;;;5094353;28;20485;-78
2023/03/12 06:44:54;;;;;;;23.85;18.75;;;;;;;;;;5086020;28;20035;-79
2023/03/12 06:47:20;;;;;;;31.13;23.33;;;;;;;;;;5097442;28;20078;-77
2023/03/12 06:49:45;;;;;;;33.40;26.23;;;;;;;;;;5098576;28;20427;-79
2023/03/12 06:52:10;;;;;;;14.90;11.88;;;;;;;;;;5100363;28;20043;-78
2023/03/12 06:54:35;;;;;;;19.10;14.38;;;;;;;;;;5098993;28;20070;-79
2023/03/12 06:57:01;;;;;;;9.07;7.35;;;;;;;;;;5091537;28;20034;-80
2023/03/12 06:59:27;;;;;;;14.77;12.02;;;;;;;;;;5094558;28;20089;-80
2023/03/12 07:01:52;;;;;;;18.67;13.52;;;;;;;;;;5099048;28;20056;-80
2023/03/12 07:04:18;;;;;;;10.23;8.25;;;;;;;;;;5099439;28;20493;-78
2023/03/12 07:06:43;;;;;;;26.05;20.13;;;;;;;;;;5098938;28;20052;-78
2023/03/12 07:09:08;;;;;;;13.40;12.00;;;;;;;;;;5095188;28;20020;-78
2023/03/12 07:11:34;;;;;;;13.32;10.27;;;;;;;;;;5087092;28;20056;-79
2023/03/12 07:14:00;;;;;;;20.65;18.40;;;;;;;;;;5099553;28;20065;-80
2023/03/12 07:16:26;;;;;;;9.95;9.02;;;;;;;;;;5099669;28;20056;-76
2023/03/12 07:18:51;;;;;;;8.00;6.93;;;;;;;;;;5096693;28;23408;-77
2023/03/12 07:21:21;;;;;;;12.73;9.70;;;;;;;;;;5096665;28;20019;-76
2023/03/12 07:23:47;;;;;;;7.97;6.68;;;;;;;;;;5098197;28;20093;-76
2023/03/12 07:26:12;;;;;;;25.92;19.02;;;;;;;;;;5094163;28;20351;-77
2023/03/12 07:28:38;;;;;;;18.52;13.52;;;;;;;;;;5096949;28;20099;-77
2023/03/12 07:31:03;;;;;;;13.73;11.02;;;;;;;;;;5098045;28;20019;-77
2023/03/12 07:33:29;;;;;;;22.88;18.50;;;;;;;;;;5094138;28;20131;-76
2023/03/12 07:35:54;;;;;;;9.38;8.38;;;;;;;;;;5095416;28;20070;-76
2023/03/12 07:38:19;;;;;;;9.20;7.45;;;;;;;;;;5080672;28;20394;-77
2023/03/12 07:40:49;;;;;;;10.70;9.27;;;;;;;;;;5084101;28;20827;-76
2023/03/12 07:43:14;;;;;;;8.95;7.90;;;;;;;;;;5092103;28;20050;-77
2023/03/12 07:45:39;;;;;;;7.63;6.72;;;;;;;;;;5093685;28;20086;-77
2023/03/12 07:48:05;;;;;;;10.82;9.27;;;;;;;;;;5086216;28;20454;-76
2023/03/12 07:50:31;;;;;;;12.38;10.35;;;;;;;;;;5096405;28;20508;-76
2023/03/12 07:52:56;;;;;;;7.30;6.60;;;;;;;;;;5130169;27;20106;-76
2023/03/12 07:55:21;;;;;;;10.05;8.38;;;;;;;;;;5094587;28;20088;-75
2023/03/12 07:57:47;;;;;;;6.38;5.75;;;;;;;;;;5091029;28;20034;-76
2023/03/12 08:00:13;;;;;;;9.57;7.47;;;;;;;;;;5089288;28;20038;-75
2023/03/12 08:02:38;;;;;;;9.43;8.45;;;;;;;;;;5085225;28;20058;-76
2023/03/12 08:05:04;;;;;;;9.15;8.25;;;;;;;;;;5086071;28;20026;-76
2023/03/12 08:07:31;;;;;;;16.05;12.15;;;;;;;;;;5095404;28;20056;-76
2023/03/12 08:10:00;;;;;;;30.45;26.33;;;;;;;;;;5093587;28;20111;-76
2023/03/12 08:12:25;;;;;;;12.13;10.27;;;;;;;;;;5092145;28;20449;-77
2023/03/12 08:14:50;;;;;;;29.38;20.55;;;;;;;;;;5094658;28;20028;-76
2023/03/12 08:17:16;;;;;;;10.00;8.90;;;;;;;;;;5085704;28;20606;-75
2023/03/12 08:19:41;;;;;;;9.23;8.13;;;;;;;;;;5091914;28;20036;-75
2023/03/12 08:22:07;;;;;;;16.00;12.65;;;;;;;;;;5094919;28;20019;-75
2023/03/12 08:24:32;;;;;;;14.15;11.15;;;;;;;;;;5091421;28;20098;-76
2023/03/12 08:26:57;;;;;;;21.35;19.23;;;;;;;;;;5084558;28;20043;-77
2023/03/12 08:29:23;;;;;;;9.85;8.88;;;;;;;;;;5085409;28;20460;-77
2023/03/12 08:31:48;;;;;;;30.92;22.70;;;;;;;;;;5084944;28;20462;-75
2023/03/12 08:34:13;;;;;;;21.63;17.70;;;;;;;;;;5084749;28;20407;-75
2023/03/12 08:36:39;;;;;;;18.42;15.18;;;;;;;;;;5093274;28;20704;-75
2023/03/12 08:39:04;;;;;;;24.30;18.35;;;;;;;;;;5096606;28;20031;-76
2023/03/12 08:41:29;;;;;;;12.68;9.07;;;;;;;;;;5090067;28;20024;-74
2023/03/12 08:43:55;;;;;;;9.60;8.70;;;;;;;;;;5085053;28;20036;-74
2023/03/12 08:46:20;;;;;;;32.03;28.23;;;;;;;;;;5087416;28;20442;-75
2023/03/12 08:48:45;;;;;;;11.98;10.75;;;;;;;;;;5093792;28;20106;-74
2023/03/12 08:51:11;;;;;;;12.50;11.15;;;;;;;;;;5079179;28;20108;-73
2023/03/12 08:53:36;;;;;;;14.30;12.90;;;;;;;;;;5085751;28;20106;-73
2023/03/12 08:56:02;;;;;;;22.10;18.50;;;;;;;;;;5090629;28;20027;-75
2023/03/12 08:58:27;;;;;;;18.48;16.63;;;;;;;;;;5079980;28;20053;-76
2023/03/12 09:00:53;;;;;;;57.42;31.08;;;;;;;;;;5079591;28;20023;-75
2023/03/12 09:03:20;;;;;;;35.42;26.35;;;;;;;;;;5091884;28;20028;-76
2023/03/12 09:05:46;;;;;;;34.63;26.25;;;;;;;;;;5089620;28;20430;-79
2023/03/12 09:08:11;;;;;;;9.82;8.82;;;;;;;;;;5084524;28;20032;-77
2023/03/12 09:10:37;;;;;;;25.08;19.15;;;;;;;;;;5085448;28;20045;-76
2023/03/12 09:13:03;;;;;;;26.05;17.10;;;;;;;;;;5085449;28;20024;-77
2023/03/12 09:15:28;;;;;;;6.88;5.78;;;;;;;;;;5084698;28;20032;-73
2023/03/12 09:17:54;;;;;;;15.23;10.77;;;;;;;;;;5083859;28;20031;-75
2023/03/12 09:20:20;;;;;;;13.60;9.30;;;;;;;;;;5086534;28;20114;-76
2023/03/12 09:22:46;;;;;;;11.20;7.70;;;;;;;;;;5085277;28;20020;-78
2023/03/12 09:25:12;;;;;;;7.95;6.75;;;;;;;;;;5084699;28;20038;-74
2023/03/12 09:27:42;;;;;;;18.30;13.25;;;;;;;;;;5083282;28;20032;-75
2023/03/12 09:30:08;;;;;;;10.07;8.02;;;;;;;;;;5080828;28;20030;-75
2023/03/12 09:32:34;;;;;;;8.20;6.93;;;;;;;;;;5088722;28;20030;-78
2023/03/12 09:35:00;;;;;;;8.55;6.78;;;;;;;;;;5080823;28;20475;-79
2023/03/12 09:37:25;;;;;;;9.27;8.38;;;;;;;;;;5082561;28;20031;-77
2023/03/12 09:39:51;;;;;;;7.00;6.30;;;;;;;;;;5084698;28;20106;-74
2023/03/12 09:42:22;;;;;;;12.45;8.00;;;;;;;;;;5091985;28;20036;-76
2023/03/12 09:44:49;;;;;;;14.40;9.88;;;;;;;;;;5093322;28;20058;-73
2023/03/12 09:47:14;;;;;;;10.90;7.93;;;;;;;;;;5094021;28;20036;-73
2023/03/12 09:49:43;;;;;;;7.30;6.57;;;;;;;;;;5082772;28;20076;-73
2023/03/12 09:52:35;;;;;;;20.27;16.65;;;;;;;;;;5092958;28;20019;-77
2023/03/12 09:55:11;;;;;;;30.33;22.42;;;;;;;;;;5093974;28;20043;-72
2023/03/12 09:57:36;;;;;;;9.52;8.52;;;;;;;;;;5093353;28;20042;-73
2023/03/12 10:00:05;;;;;;;6.75;5.55;;;;;;;;;;5088509;28;20106;-73
2023/03/12 10:02:49;;;;;;;8.88;7.90;;;;;;;;;;5086311;28;20034;-74
2023/03/12 10:05:22;;;;;;;9.05;7.15;;;;;;;;;;5091952;28;20038;-73
2023/03/12 10:07:52;;;;;;;6.82;6.13;;;;;;;;;;5081653;28;20047;-73
2023/03/12 10:10:31;;;;;;;5.03;4.53;;;;;;;;;;5081376;28;20052;-74
2023/03/12 10:13:15;;;;;;;5.10;4.70;;;;;;;;;;5080290;28;20081;-74
2023/03/12 10:15:46;;;;;;;8.32;6.50;;;;;;;;;;5079050;28;20071;-74
2023/03/12 10:18:22;;;;;;;6.55;5.85;;;;;;;;;;5082423;28;20074;-73
2023/03/12 10:21:03;;;;;;;9.32;7.82;;;;;;;;;;5082903;28;20023;-74
2023/03/12 10:23:28;;;;;;;11.45;8.85;;;;;;;;;;5077135;28;20020;-74
2023/03/12 10:26:13;;;;;;;7.88;6.45;;;;;;;;;;5079922;28;20030;-75
2023/03/12 10:28:43;;;;;;;9.77;7.18;;;;;;;;;;5082846;28;20517;-75
2023/03/12 10:31:18;;;;;;;8.02;7.18;;;;;;;;;;5090771;28;20027;-77
2023/03/12 10:33:46;;;;;;;7.07;5.70;;;;;;;;;;5089295;28;20028;-75
2023/03/12 10:36:19;;;;;;;7.68;5.82;;;;;;;;;;5090764;28;20358;-74
2023/03/12 10:38:47;;;;;;;9.68;7.65;;;;;;;;;;5090831;28;20505;-74
2023/03/12 10:41:18;;;;;;;8.43;7.30;;;;;;;;;;5093456;28;20438;-75
2023/03/12 10:43:43;;;;;;;8.60;7.13;;;;;;;;;;5086544;28;20012;-75
2023/03/12 10:46:14;;;;;;;20.77;17.52;;;;;;;;;;5090930;28;20093;-80
2023/03/12 10:48:39;;;;;;;11.43;8.18;;;;;;;;;;5095244;28;20031;-75
2023/03/12 10:51:09;;;;;;;26.48;18.40;;;;;;;;;;5095210;28;20445;-76
2023/03/12 10:53:35;;;;;;;29.48;24.83;;;;;;;;;;5093903;28;20024;-75
2023/03/12 10:56:15;;;;;;;17.48;10.60;;;;;;;;;;5095082;28;20034;-75
2023/03/12 10:58:44;;;;;;;23.17;17.52;;;;;;;;;;5092852;28;20851;-75
2023/03/12 11:01:19;;;;;;;11.82;9.48;;;;;;;;;;5098372;28;20035;-74
2023/03/12 11:03:48;;;;;;;16.20;13.40;;;;;;;;;;5096206;28;20430;-74
2023/03/12 11:06:16;;;;;;;;;;;;;;;;;;5098976;28;20335;-74
2023/03/12 11:09:00;;;;;;;10.05;8.32;;;;;;;;;;5098067;28;19916;-75
2023/03/12 11:11:32;;;;;;;7.68;6.97;;;;;;;;;;5096907;27;20720;-74
2023/03/12 11:14:14;;;;;;;9.30;7.97;;;;;;;;;;5096675;28;20477;-74
2023/03/12 11:16:40;;;;;;;8.88;7.40;;;;;;;;;;5095973;28;20028;-74
2023/03/12 11:19:05;;;;;;;6.47;5.78;;;;;;;;;;5096941;28;20518;-74
2023/03/12 11:21:32;;;;;;;12.20;9.82;;;;;;;;;;5095248;28;20383;-74
2023/03/12 11:23:57;;;;;;;11.68;10.45;;;;;;;;;;5097116;28;20027;-74
2023/03/12 11:26:24;;;;;;;5.78;5.18;;;;;;;;;;5085381;28;21074;-75
2023/03/12 11:28:51;;;;;;;15.82;11.02;;;;;;;;;;5096121;28;20106;-74
2023/03/12 11:31:21;;;;;;;24.35;18.92;;;;;;;;;;5093590;28;20028;-74
2023/03/12 11:33:47;;;;;;;32.30;22.20;;;;;;;;;;5098203;28;20457;-74
2023/03/12 11:36:27;;;;;;;11.43;9.02;;;;;;;;;;5092814;28;20028;-75
2023/03/12 11:38:52;;;;;;;;;;;;;;;;;;5085656;28;20027;-74
2023/03/12 11:41:17;;;;;;;22.03;13.87;;;;;;;;;;5092365;28;19916;-76
2023/03/12 11:43:48;;;;;;;45.47;31.35;;;;;;;;;;5083303;28;20482;-77
2023/03/12 11:46:49;;;;;;;14.90;11.80;;;;;;;;;;5085148;28;20030;-73
2023/03/12 11:49:25;;;;;;;17.95;14.35;;;;;;;;;;5038986;28;20553;-72
2023/03/12 11:52:09;;;;;;;32.17;26.27;;;;;;;;;;5036494;28;20037;-74
2023/03/12 11:54:34;;;;;;;13.98;9.90;;;;;;;;;;5022798;28;20080;-73
2023/03/12 11:57:02;;;;;;;21.77;17.73;;;;;;;;;;5025445;28;20571;-72
2023/03/12 11:59:32;;;;;;;9.20;8.07;;;;;;;;;;5035890;28;20464;-73
2023/03/12 12:02:15;;;;;;;17.90;15.45;;;;;;;;;;5034761;28;20151;-72
2023/03/12 12:04:41;;;;;;;9.10;8.20;;;;;;;;;;5025830;28;20116;-72
2023/03/12 12:07:09;;;;;;;9.20;8.30;;;;;;;;;;5035986;28;20155;-73
2023/03/12 12:09:34;;;;;;;30.70;22.75;;;;;;;;;;5035762;28;20055;-73
2023/03/12 12:12:11;;;;;;;7.85;6.90;;;;;;;;;;5037510;28;20041;-75
2023/03/12 12:14:45;;;;;;;24.35;18.95;;;;;;;;;;5034866;28;20033;-75
2023/03/12 12:17:20;;;;;;;11.23;9.63;;;;;;;;;;5024802;28;20127;-71
2023/03/12 12:19:48;;;;;;;15.00;12.00;;;;;;;;;;5036926;28;20538;-75
2023/03/12 12:22:29;;;;;;;28.13;22.67;;;;;;;;;;5041899;28;20033;-74
2023/03/12 12:25:00;;;;;;;13.10;11.65;;;;;;;;;;5084879;28;20339;-74
2023/03/12 12:27:28;;;;;;;15.15;13.60;;;;;;;;;;5091535;28;20087;-75
2023/03/12 12:29:53;;;;;;;13.13;11.10;;;;;;;;;;5083832;28;20031;-74
2023/03/12 12:32:37;;;;;;;12.48;10.20;;;;;;;;;;5081371;28;20031;-75
2023/03/12 12:35:05;;;;;;;9.63;7.53;;;;;;;;;;5077561;28;20119;-77
2023/03/12 12:37:46;;;;;;;6.78;5.57;;;;;;;;;;5089891;28;20059;-73
2023/03/12 12:40:38;;;;;;;9.05;7.85;;;;;;;;;;5081797;28;20870;-73
2023/03/12 12:43:03;;;;;;;8.55;7.43;;;;;;;;;;5057695;28;20039;-73
2023/03/12 12:45:28;;;;;;;9.88;7.70;;;;;;;;;;5085270;28;20029;-75
2023/03/12 12:48:06;;;;;;;6.82;6.13;;;;;;;;;;5091254;28;20536;-75
2023/03/12 12:50:34;;;;;;;11.52;9.55;;;;;;;;;;5091174;28;20039;-74
2023/03/12 12:53:11;;;;;;;8.93;8.00;;;;;;;;;;5095931;28;20110;-73
2023/03/12 12:55:41;;;;;;;8.35;7.00;;;;;;;;;;5085444;28;20038;-72
2023/03/12 12:58:12;;;;;;;7.50;6.80;;;;;;;;;;5095636;28;20064;-73
2023/03/12 13:00:37;;;;;;;6.75;6.05;;;;;;;;;;5097382;28;21284;-75
2023/03/12 13:03:03;;;;;;;6.15;5.55;;;;;;;;;;5094751;28;20046;-72
2023/03/12 13:05:45;;;;;;;9.73;8.50;;;;;;;;;;5096981;28;20035;-73
2023/03/12 13:08:30;;;;;;;8.65;7.75;;;;;;;;;;5086124;28;20494;-73
2023/03/12 13:10:56;;;;;;;15.15;11.43;;;;;;;;;;5094816;28;20105;-75
2023/03/12 13:13:22;;;;;;;6.95;6.35;;;;;;;;;;5096533;28;20400;-73
2023/03/12 13:15:48;;;;;;;16.05;14.45;;;;;;;;;;5094822;28;20020;-75
2023/03/12 13:18:16;;;;;;;9.68;7.35;;;;;;;;;;5093072;28;20039;-73
2023/03/12 13:21:04;;;;;;;10.65;9.50;;;;;;;;;;5092273;28;20077;-73
2023/03/12 13:23:29;;;;;;;11.27;10.15;;;;;;;;;;5086264;28;20063;-73
2023/03/12 13:25:57;;;;;;;12.73;10.93;;;;;;;;;;5091027;28;20070;-75
2023/03/12 13:28:28;;;;;;;9.65;8.65;;;;;;;;;;5092947;28;20036;-72
2023/03/12 13:30:54;;;;;;;6.05;5.53;;;;;;;;;;5096781;28;20383;-73
2023/03/12 13:33:37;;;;;;;8.73;7.82;;;;;;;;;;5093889;27;20119;-72
2023/03/12 13:36:09;;;;;;;8.00;7.25;;;;;;;;;;5086111;28;20106;-77
2023/03/12 13:38:50;;;;;;;9.73;7.95;;;;;;;;;;5080421;28;20439;-75
2023/03/12 13:41:28;;;;;;;13.07;11.52;;;;;;;;;;5082234;28;20023;-74
2023/03/12 13:43:55;;;;;;;11.55;10.35;;;;;;;;;;5083318;28;20026;-74
2023/03/12 13:46:40;;;;;;;6.53;5.93;;;;;;;;;;5081663;28;20019;-72
2023/03/12 13:49:10;;;;;;;10.10;8.98;;;;;;;;;;5085724;28;20127;-75
2023/03/12 13:51:42;;;;;;;19.60;16.83;;;;;;;;;;5094955;28;20346;-72
2023/03/12 13:54:14;;;;;;;45.78;35.83;;;;;;;;;;5091597;28;20031;-73
2023/03/12 13:56:44;;;;;;;29.63;22.27;;;;;;;;;;5079897;28;20024;-71
2023/03/12 13:59:16;;;;;;;16.02;13.75;;;;;;;;;;5078684;28;20395;-73
2023/03/12 14:01:45;;;;;;;9.65;8.60;;;;;;;;;;5078720;28;24208;-72
2023/03/12 14:04:21;;;;;;;8.23;6.78;;;;;;;;;;5080166;28;20120;-74
2023/03/12 14:07:07;;;;;;;41.90;30.38;;;;;;;;;;5081206;28;20063;-71
2023/03/12 14:09:46;;;;;;;11.52;9.05;;;;;;;;;;5069297;28;20032;-72
2023/03/12 14:12:12;;;;;;;22.42;18.50;;;;;;;;;;5079926;28;20036;-74
2023/03/12 14:14:47;;;;;;;36.70;25.35;;;;;;;;;;5080084;28;20096;-72
2023/03/12 14:17:23;;;;;;;29.40;21.38;;;;;;;;;;5080079;28;20039;-72
2023/03/12 14:19:56;;;;;;;30.75;23.35;;;;;;;;;;5079062;28;20438;-72
2023/03/12 14:22:23;;;;;;;17.40;15.50;;;;;;;;;;5078536;28;20046;-73
2023/03/12 14:24:56;;;;;;;18.73;16.05;;;;;;;;;;5080983;28;20031;-72
2023/03/12 14:27:26;;;;;;;12.15;10.95;;;;;;;;;;5079237;28;20031;-74
2023/03/12 14:29:56;;;;;;;7.20;6.53;;;;;;;;;;5080338;28;20036;-73
2023/03/12 14:32:24;;;;;;;7.20;6.50;;;;;;;;;;5080879;28;20103;-72